createdAt,value
2019-05-25T00:00:49.483Z,2.40
2019-05-25T00:03:18.701Z,2.50
2019-05-25T00:05:47.960Z,2.40
2019-05-25T00:08:17.172Z,3.57
2019-05-25T00:10:46.408Z,2.27
2019-05-25T00:13:15.609Z,2.57
2019-05-25T00:15:44.901Z,2.43
2019-05-25T00:18:14.144Z,2.33
2019-05-25T00:20:43.359Z,2.50
2019-05-25T00:23:12.776Z,2.40
2019-05-25T00:25:41.984Z,2.37
2019-05-25T00:28:11.223Z,2.60
2019-05-25T00:30:40.438Z,2.60
2019-05-25T00:33:09.637Z,2.53
2019-05-25T00:35:38.823Z,2.10
2019-05-25T00:38:08.025Z,2.43
2019-05-25T00:40:37.252Z,2.07
2019-05-25T00:43:06.461Z,2.13
2019-05-25T00:45:35.684Z,1.87
2019-05-25T00:48:04.864Z,2.13
2019-05-25T00:50:34.085Z,2.60
2019-05-25T00:53:03.293Z,2.00
2019-05-25T00:55:32.656Z,2.33
2019-05-25T00:58:01.857Z,2.00
2019-05-25T01:00:31.159Z,1.73
2019-05-25T01:03:00.353Z,2.27
2019-05-25T01:05:29.952Z,2.47
2019-05-25T01:07:59.145Z,2.50
2019-05-25T01:10:28.455Z,2.87
2019-05-25T01:12:57.732Z,2.53
2019-05-25T01:15:26.969Z,2.10
2019-05-25T01:17:56.173Z,2.43
2019-05-25T01:20:25.710Z,2.93
2019-05-25T01:22:54.901Z,2.80
2019-05-25T01:25:24.204Z,2.60
2019-05-25T01:27:53.375Z,2.60
2019-05-25T01:30:22.905Z,2.93
2019-05-25T01:32:52.112Z,3.07
2019-05-25T01:35:21.336Z,2.30
2019-05-25T01:37:50.515Z,3.07
2019-05-25T01:40:20.148Z,2.90
2019-05-25T01:42:49.375Z,2.80
2019-05-25T01:45:18.672Z,2.47
2019-05-25T01:47:48.070Z,2.73
2019-05-25T01:50:17.996Z,2.83
2019-05-25T01:52:47.213Z,2.83
2019-05-25T01:55:16.418Z,2.63
2019-05-25T01:57:45.623Z,2.70
2019-05-25T02:00:16.572Z,2.53
2019-05-25T02:02:45.953Z,2.60
2019-05-25T02:05:15.552Z,2.60
2019-05-25T02:07:44.763Z,2.33
2019-05-25T02:10:14.137Z,2.50
2019-05-25T02:12:43.336Z,2.60
2019-05-25T02:15:12.727Z,2.87
2019-05-25T02:17:41.940Z,2.50
2019-05-25T02:20:11.614Z,2.77
2019-05-25T02:22:40.855Z,2.50
2019-05-25T02:25:18.038Z,2.70
2019-05-25T02:27:42.432Z,2.90
2019-05-25T02:30:14.778Z,3.13
2019-05-25T02:32:44.063Z,2.77
2019-05-25T02:35:25.457Z,2.73
2019-05-25T02:37:54.679Z,2.67
2019-05-25T02:40:23.877Z,2.90
2019-05-25T02:42:53.107Z,2.83
2019-05-25T02:45:22.384Z,2.90
2019-05-25T02:47:51.743Z,3.50
2019-05-25T02:50:21.221Z,2.93
2019-05-25T02:52:50.428Z,3.17
2019-05-25T02:55:32.941Z,3.63
2019-05-25T02:57:50.485Z,3.77
2019-05-25T03:00:24.979Z,3.30
2019-05-25T03:02:54.227Z,4.23
2019-05-25T03:05:23.397Z,3.17
2019-05-25T03:07:53.560Z,3.40
2019-05-25T03:10:22.787Z,3.83
2019-05-25T03:12:52.669Z,3.80
2019-05-25T03:15:21.877Z,3.60
2019-05-25T03:17:51.076Z,3.57
2019-05-25T03:20:20.289Z,3.40
2019-05-25T03:22:49.488Z,3.80
2019-05-25T03:25:18.706Z,2.97
2019-05-25T03:27:47.916Z,4.17
2019-05-25T03:30:22.496Z,3.40
2019-05-25T03:32:51.693Z,3.60
2019-05-25T03:35:20.901Z,3.20
2019-05-25T03:37:50.082Z,3.00
2019-05-25T03:40:19.281Z,3.47
2019-05-25T03:42:48.596Z,3.27
2019-05-25T03:45:18.137Z,3.87
2019-05-25T03:47:47.321Z,3.30
2019-05-25T03:50:16.557Z,3.43
2019-05-25T03:52:45.753Z,3.20
2019-05-25T03:55:14.982Z,3.27
2019-05-25T03:57:44.180Z,3.70
2019-05-25T04:00:13.901Z,3.33
2019-05-25T04:02:43.165Z,3.60
2019-05-25T04:05:12.549Z,3.43
2019-05-25T04:07:41.743Z,3.57
2019-05-25T04:10:10.976Z,3.40
2019-05-25T04:12:40.173Z,3.27
2019-05-25T04:15:09.497Z,3.47
2019-05-25T04:17:38.710Z,2.93
2019-05-25T04:20:08.029Z,3.50
2019-05-25T04:22:37.221Z,3.20
2019-05-25T04:25:06.444Z,3.23
2019-05-25T04:27:35.639Z,3.23
2019-05-25T04:30:05.249Z,4.57
2019-05-25T04:32:34.437Z,3.63
2019-05-25T04:35:04.346Z,3.83
2019-05-25T04:37:33.571Z,3.40
2019-05-25T04:40:02.737Z,3.53
2019-05-25T04:42:31.947Z,3.20
2019-05-25T04:45:01.190Z,3.70
2019-05-25T04:47:30.381Z,3.57
2019-05-25T04:49:59.597Z,3.63
2019-05-25T04:52:28.829Z,3.17
2019-05-25T04:54:58.021Z,3.63
2019-05-25T04:57:27.224Z,3.53
2019-05-25T04:59:56.445Z,4.30
2019-05-25T05:02:25.647Z,3.60
2019-05-25T05:04:54.824Z,3.30
2019-05-25T05:07:24.210Z,3.20
2019-05-25T05:10:02.062Z,3.73
2019-05-25T05:12:24.302Z,3.90
2019-05-25T05:14:56.350Z,3.60
2019-05-25T05:17:24.377Z,3.63
2019-05-25T05:19:53.558Z,4.20
2019-05-25T05:22:22.764Z,3.73
2019-05-25T05:24:52.032Z,4.23
2019-05-25T05:27:21.325Z,3.80
2019-05-25T05:29:50.520Z,3.57
2019-05-25T05:32:27.590Z,3.73
2019-05-25T05:34:51.045Z,3.50
2019-05-25T05:37:21.063Z,4.03
2019-05-25T05:39:50.750Z,3.90
2019-05-25T05:42:22.152Z,3.37
2019-05-25T05:44:53.205Z,3.93
2019-05-25T05:47:24.983Z,3.63
2019-05-25T05:49:55.099Z,3.73
2019-05-25T05:52:27.408Z,3.60
2019-05-25T05:54:59.524Z,3.63
2019-05-25T05:57:28.751Z,3.70
2019-05-25T05:59:57.944Z,3.80
2019-05-25T06:02:27.246Z,4.03
2019-05-25T06:04:56.460Z,3.67
2019-05-25T06:07:27.574Z,3.60
2019-05-25T06:09:56.528Z,4.10
2019-05-25T06:12:25.750Z,2.53
2019-05-25T06:14:54.962Z,3.83
2019-05-25T06:17:24.147Z,3.70
2019-05-25T06:19:53.378Z,3.90
2019-05-25T06:22:22.568Z,3.83
2019-05-25T06:24:51.792Z,3.70
2019-05-25T06:27:27.556Z,3.43
2019-05-25T06:29:51.953Z,4.17
2019-05-25T06:32:21.137Z,3.60
2019-05-25T06:34:50.363Z,3.90
2019-05-25T06:37:19.555Z,3.80
2019-05-25T06:39:48.781Z,3.93
2019-05-25T06:42:17.989Z,4.00
2019-05-25T06:44:47.194Z,3.40
2019-05-25T06:47:16.386Z,3.77
2019-05-25T06:49:45.617Z,3.60
2019-05-25T06:52:14.864Z,4.00
2019-05-25T06:54:44.183Z,3.80
2019-05-25T06:57:13.375Z,3.23
2019-05-25T06:59:42.612Z,3.30
2019-05-25T07:02:11.784Z,2.80
2019-05-25T07:04:41.004Z,3.90
2019-05-25T07:07:10.361Z,3.60
2019-05-25T07:09:39.501Z,3.37
2019-05-25T07:12:08.720Z,3.30
2019-05-25T07:14:37.937Z,3.17
2019-05-25T07:17:07.134Z,3.00
2019-05-25T07:19:36.336Z,2.00
2019-05-25T07:22:05.620Z,2.90
2019-05-25T07:24:34.917Z,3.10
2019-05-25T07:27:04.141Z,2.80
2019-05-25T07:29:33.375Z,2.27
2019-05-25T07:32:02.663Z,3.80
2019-05-25T07:34:31.956Z,2.50
2019-05-25T07:37:01.139Z,2.40
2019-05-25T07:39:30.350Z,2.20
2019-05-25T07:41:59.555Z,1.97
2019-05-25T07:44:28.756Z,1.90
2019-05-25T07:46:57.962Z,1.93
2019-05-25T07:49:27.168Z,1.97
2019-05-25T07:51:56.401Z,2.30
2019-05-25T07:54:25.641Z,2.10
2019-05-25T07:56:54.846Z,1.83
2019-05-25T07:59:24.124Z,2.40
2019-05-25T08:01:53.319Z,1.90
2019-05-25T08:04:22.556Z,1.80
2019-05-25T08:06:51.744Z,1.83
2019-05-25T08:09:20.972Z,2.17
2019-05-25T08:11:50.148Z,1.73
2019-05-25T08:14:19.393Z,1.67
2019-05-25T08:16:48.580Z,1.77
2019-05-25T08:19:17.808Z,2.13
2019-05-25T08:21:47.011Z,1.73
2019-05-25T08:24:16.239Z,2.23
2019-05-25T08:26:45.455Z,1.67
2019-05-25T08:29:14.759Z,1.77
2019-05-25T08:31:44.001Z,1.80
2019-05-25T08:34:13.271Z,1.67
2019-05-25T08:36:42.488Z,2.00
2019-05-25T08:39:11.736Z,1.33
2019-05-25T08:41:40.978Z,1.70
2019-05-25T08:44:10.164Z,1.77
2019-05-25T08:46:39.432Z,1.87
2019-05-25T08:49:08.745Z,1.80
2019-05-25T08:51:38.140Z,1.73
2019-05-25T08:54:07.414Z,1.70
2019-05-25T08:56:36.656Z,1.87
2019-05-25T08:59:06.020Z,1.83
2019-05-25T09:01:35.292Z,1.73
2019-05-25T09:04:04.619Z,1.90
2019-05-25T09:06:33.833Z,1.67
2019-05-25T09:09:03.883Z,1.67
2019-05-25T09:11:33.104Z,1.93
2019-05-25T09:14:02.354Z,1.87
2019-05-25T09:16:31.654Z,1.73
2019-05-25T09:19:00.901Z,1.70
2019-05-25T09:21:30.247Z,1.63
2019-05-25T09:23:59.788Z,1.60
2019-05-25T09:26:29.563Z,1.60
2019-05-25T09:29:04.546Z,1.53
2019-05-25T09:31:30.473Z,1.33
2019-05-25T09:34:00.227Z,1.63
2019-05-25T09:36:29.990Z,1.43
2019-05-25T09:38:59.341Z,1.40
2019-05-25T09:41:29.166Z,1.60
2019-05-25T09:43:58.376Z,1.30
2019-05-25T09:46:27.597Z,1.30
2019-05-25T09:48:56.900Z,1.40
2019-05-25T09:51:26.108Z,1.20
2019-05-25T09:53:55.363Z,1.50
2019-05-25T09:56:24.614Z,1.23
2019-05-25T09:58:54.151Z,1.27
2019-05-25T10:01:23.748Z,1.70
2019-05-25T10:03:56.495Z,1.30
2019-05-25T10:06:24.917Z,1.23
2019-05-25T10:08:54.401Z,1.20
2019-05-25T10:11:23.840Z,1.33
2019-05-25T10:13:53.396Z,1.50
2019-05-25T10:16:23.019Z,1.80
2019-05-25T10:18:53.052Z,1.60
2019-05-25T10:21:22.751Z,1.60
2019-05-25T10:23:52.556Z,1.90
2019-05-25T10:26:23.152Z,1.53
2019-05-25T10:28:52.773Z,1.67
2019-05-25T10:31:22.769Z,1.63
2019-05-25T10:33:52.416Z,1.93
2019-05-25T10:36:23.084Z,1.90
2019-05-25T10:38:52.760Z,1.90
2019-05-25T10:41:22.635Z,1.67
2019-05-25T10:43:52.290Z,2.10
2019-05-25T10:46:21.978Z,1.70
2019-05-25T10:48:51.922Z,1.87
2019-05-25T10:51:22.110Z,2.57
2019-05-25T10:53:51.746Z,1.97
2019-05-25T10:56:21.132Z,1.90
2019-05-25T10:58:50.906Z,2.20
2019-05-25T11:01:20.224Z,1.77
2019-05-25T11:03:49.434Z,2.10
2019-05-25T11:06:18.656Z,2.30
2019-05-25T11:08:47.869Z,1.80
2019-05-25T11:11:17.173Z,1.90
2019-05-25T11:13:46.345Z,1.80
2019-05-25T11:16:15.649Z,2.00
2019-05-25T11:18:44.848Z,2.50
2019-05-25T11:21:14.058Z,2.00
2019-05-25T11:23:43.641Z,2.03
2019-05-25T11:26:12.863Z,2.37
2019-05-25T11:28:42.069Z,2.00
2019-05-25T11:31:11.293Z,2.00
2019-05-25T11:33:40.508Z,1.67
2019-05-25T11:36:09.797Z,2.13
2019-05-25T11:38:39.017Z,2.17
2019-05-25T11:41:08.424Z,1.87
2019-05-25T11:43:37.554Z,1.80
2019-05-25T11:46:06.777Z,1.60
2019-05-25T11:48:36.043Z,1.93
2019-05-25T11:51:05.277Z,2.10
2019-05-25T11:53:34.476Z,1.63
2019-05-25T11:56:03.747Z,1.83
2019-05-25T11:58:46.653Z,1.57
2019-05-25T12:01:04.527Z,1.70
2019-05-25T12:03:33.754Z,1.70
2019-05-25T12:06:03.015Z,1.90
2019-05-25T12:08:32.284Z,1.80
2019-05-25T12:11:01.486Z,2.00
2019-05-25T12:13:32.153Z,2.23
2019-05-25T12:16:01.634Z,2.00
2019-05-25T12:18:30.827Z,2.00
2019-05-25T12:21:00.029Z,2.37
2019-05-25T12:23:29.270Z,1.90
2019-05-25T12:25:58.836Z,2.07
2019-05-25T12:28:28.136Z,2.33
2019-05-25T12:30:57.498Z,2.30
2019-05-25T12:33:26.792Z,2.43
2019-05-25T12:35:56.047Z,2.20
2019-05-25T12:38:25.277Z,2.30
2019-05-25T12:40:54.487Z,2.10
2019-05-25T12:43:23.774Z,2.20
2019-05-25T12:45:53.000Z,2.27
2019-05-25T12:48:22.233Z,2.37
2019-05-25T12:50:51.408Z,1.97
2019-05-25T12:53:20.656Z,2.27
2019-05-25T12:55:49.966Z,2.03
2019-05-25T12:58:19.150Z,2.40
2019-05-25T13:00:56.047Z,1.77
2019-05-25T13:03:19.256Z,1.60
2019-05-25T13:05:48.480Z,1.77
2019-05-25T13:08:17.776Z,1.90
2019-05-25T13:10:46.997Z,1.60
2019-05-25T13:13:16.608Z,1.70
2019-05-25T13:15:45.893Z,1.93
2019-05-25T13:18:15.144Z,2.20
2019-05-25T13:20:44.379Z,2.10
2019-05-25T13:23:13.588Z,1.77
2019-05-25T13:25:42.864Z,2.10
2019-05-25T13:28:12.153Z,2.03
2019-05-25T13:30:41.352Z,1.90
2019-05-25T13:33:10.748Z,2.00
2019-05-25T13:35:39.947Z,2.20
2019-05-25T13:38:09.163Z,2.10
2019-05-25T13:40:38.448Z,2.43
2019-05-25T13:43:07.684Z,2.50
2019-05-25T13:45:36.900Z,2.00
2019-05-25T13:48:06.125Z,1.90
2019-05-25T13:50:35.384Z,2.30
2019-05-25T13:53:04.595Z,2.00
2019-05-25T13:55:33.857Z,2.00
2019-05-25T13:58:03.097Z,1.83
2019-05-25T14:00:32.384Z,1.90
2019-05-25T14:03:01.552Z,2.30
2019-05-25T14:05:30.779Z,2.17
2019-05-25T14:08:00.093Z,2.43
2019-05-25T14:10:29.288Z,1.80
2019-05-25T14:12:58.536Z,2.10
2019-05-25T14:15:27.758Z,2.00
2019-05-25T14:17:56.955Z,2.03
2019-05-25T14:20:26.183Z,1.80
2019-05-25T14:22:55.387Z,2.13
2019-05-25T14:25:24.669Z,2.10
2019-05-25T14:27:54.060Z,2.03
2019-05-25T14:30:23.615Z,2.10
2019-05-25T14:32:52.821Z,2.00
2019-05-25T14:35:22.122Z,2.20
2019-05-25T14:37:51.381Z,2.50
2019-05-25T14:40:20.561Z,2.20
2019-05-25T14:42:49.805Z,2.07
2019-05-25T14:45:19.021Z,2.03
2019-05-25T14:47:48.220Z,2.10
2019-05-25T14:50:17.518Z,2.00
2019-05-25T14:52:46.742Z,2.43
2019-05-25T14:55:16.044Z,1.80
2019-05-25T14:57:47.769Z,1.80
2019-05-25T15:00:17.959Z,1.73
2019-05-25T15:02:47.228Z,1.90
2019-05-25T15:05:17.079Z,2.40
2019-05-25T15:07:46.307Z,1.90
2019-05-25T15:10:15.891Z,1.60
2019-05-25T15:12:45.120Z,1.70
2019-05-25T15:15:16.249Z,2.03
2019-05-25T15:17:45.516Z,1.63
2019-05-25T15:20:15.644Z,1.70
2019-05-25T15:22:47.009Z,1.73
2019-05-25T15:25:15.807Z,1.60
2019-05-25T15:27:44.985Z,2.43
2019-05-25T15:30:14.304Z,1.80
2019-05-25T15:32:43.484Z,1.93
2019-05-25T15:35:13.034Z,2.00
2019-05-25T15:37:42.212Z,2.30
2019-05-25T15:40:12.273Z,1.90
2019-05-25T15:42:41.477Z,2.03
2019-05-25T15:45:11.094Z,1.70
2019-05-25T15:47:40.286Z,1.90
2019-05-25T15:50:10.195Z,2.03
2019-05-25T15:52:39.394Z,1.80
2019-05-25T15:55:09.002Z,1.83
2019-05-25T15:57:38.184Z,2.03
2019-05-25T16:00:08.471Z,1.90
2019-05-25T16:02:37.713Z,1.73
2019-05-25T16:05:07.199Z,2.10
2019-05-25T16:07:40.049Z,2.00
2019-05-25T16:10:09.636Z,2.30
2019-05-25T16:12:38.884Z,2.03
2019-05-25T16:15:09.109Z,2.10
2019-05-25T16:17:38.817Z,2.67
2019-05-25T16:20:08.421Z,2.03
2019-05-25T16:22:37.700Z,2.03
2019-05-25T16:25:07.266Z,1.63
2019-05-25T16:27:36.528Z,1.90
2019-05-25T16:30:06.424Z,2.00
2019-05-25T16:33:07.206Z,2.50
2019-05-25T16:35:06.859Z,1.80
2019-05-25T16:37:36.364Z,1.73
2019-05-25T16:40:05.877Z,1.97
2019-05-25T16:42:35.083Z,2.33
2019-05-25T16:45:05.918Z,1.83
2019-05-25T16:47:35.457Z,2.00
2019-05-25T16:50:05.556Z,2.17
2019-05-25T16:52:34.831Z,2.10
2019-05-25T16:55:04.065Z,2.27
2019-05-25T16:57:33.313Z,2.20
2019-05-25T17:00:02.560Z,2.40
2019-05-25T17:02:31.689Z,1.97
2019-05-25T17:05:00.948Z,2.20
2019-05-25T17:07:30.180Z,2.17
2019-05-25T17:09:59.403Z,2.13
2019-05-25T17:12:28.728Z,2.13
2019-05-25T17:14:57.941Z,1.70
2019-05-25T17:17:27.438Z,1.90
2019-05-25T17:19:56.662Z,1.60
2019-05-25T17:22:25.870Z,1.67
2019-05-25T17:24:58.576Z,1.90
2019-05-25T17:27:25.913Z,1.73
2019-05-25T17:29:55.187Z,2.33
2019-05-25T17:32:24.411Z,2.00
2019-05-25T17:34:53.628Z,1.83
2019-05-25T17:37:22.830Z,2.30
2019-05-25T17:39:52.134Z,2.10
2019-05-25T17:42:21.856Z,1.73
2019-05-25T17:44:51.159Z,1.83
2019-05-25T17:47:20.356Z,1.73
2019-05-25T17:49:49.597Z,2.00
2019-05-25T17:52:22.587Z,1.43
2019-05-25T17:54:49.660Z,2.07
2019-05-25T17:57:18.859Z,1.70
2019-05-25T17:59:48.112Z,1.60
2019-05-25T18:02:17.408Z,1.70
2019-05-25T18:04:46.663Z,1.70
2019-05-25T18:07:15.847Z,1.60
2019-05-25T18:09:45.053Z,1.80
2019-05-25T18:12:14.344Z,1.77
2019-05-25T18:14:43.559Z,2.10
2019-05-25T18:17:12.760Z,1.90
2019-05-25T18:19:42.014Z,1.83
2019-05-25T18:22:11.201Z,1.93
2019-05-25T18:24:40.379Z,2.10
2019-05-25T18:27:09.601Z,1.97
2019-05-25T18:29:38.800Z,1.70
2019-05-25T18:32:08.004Z,1.80
2019-05-25T18:34:37.208Z,1.90
2019-05-25T18:37:06.419Z,2.40
2019-05-25T18:39:35.617Z,1.90
2019-05-25T18:42:05.059Z,1.70
2019-05-25T18:44:34.278Z,1.93
2019-05-25T18:47:03.500Z,1.60
2019-05-25T18:49:32.692Z,1.77
2019-05-25T18:52:01.930Z,1.93
2019-05-25T18:54:31.182Z,2.30
2019-05-25T18:57:04.173Z,1.90
2019-05-25T18:59:31.563Z,2.10
2019-05-25T19:02:01.028Z,1.97
2019-05-25T19:04:44.817Z,2.20
2019-05-25T19:07:02.444Z,1.90
2019-05-25T19:09:31.930Z,2.00
2019-05-25T19:12:01.325Z,2.27
2019-05-25T19:14:33.728Z,1.80
2019-05-25T19:17:03.201Z,2.00
2019-05-25T19:19:32.922Z,1.80
2019-05-25T19:22:02.324Z,1.90
2019-05-25T19:24:31.810Z,1.60
2019-05-25T19:27:01.456Z,2.30
2019-05-25T19:29:30.680Z,2.13
2019-05-25T19:31:59.893Z,1.73
2019-05-25T19:34:29.119Z,2.20
2019-05-25T19:37:03.700Z,2.47
2019-05-25T19:39:29.399Z,2.20
2019-05-25T19:41:58.635Z,1.83
2019-05-25T19:44:29.114Z,2.20
2019-05-25T19:47:07.652Z,2.00
2019-05-25T19:49:38.799Z,2.30
2019-05-25T19:52:08.093Z,2.10
2019-05-25T19:54:39.005Z,2.20
2019-05-25T19:57:08.218Z,2.40
2019-05-25T19:59:37.434Z,1.87
2019-05-25T20:02:15.963Z,2.30
2019-05-25T20:04:45.190Z,2.47
2019-05-25T20:07:14.395Z,2.10
2019-05-25T20:09:47.466Z,2.17
2019-05-25T20:12:17.287Z,2.27
2019-05-25T20:14:50.629Z,2.10
2019-05-25T20:17:20.148Z,1.70
2019-05-25T20:19:49.955Z,1.90
2019-05-25T20:22:19.790Z,1.80
2019-05-25T20:24:49.643Z,1.90
2019-05-25T20:27:21.410Z,1.93
2019-05-25T20:29:54.073Z,1.80
2019-05-25T20:32:23.496Z,2.03
2019-05-25T20:34:53.020Z,1.70
2019-05-25T20:37:22.455Z,1.60
2019-05-25T20:39:51.648Z,2.03
2019-05-25T20:42:20.880Z,1.70
2019-05-25T20:44:50.197Z,1.80
2019-05-25T20:47:19.385Z,1.73
2019-05-25T20:49:48.684Z,1.60
2019-05-25T20:52:17.934Z,1.57
2019-05-25T20:54:47.167Z,2.00
2019-05-25T20:57:16.378Z,3.80
2019-05-25T20:59:45.591Z,3.20
2019-05-25T21:02:14.900Z,3.60
2019-05-25T21:04:44.164Z,4.57
2019-05-25T21:07:13.392Z,3.30
2019-05-25T21:09:42.638Z,2.73
2019-05-25T21:12:11.849Z,2.90
2019-05-25T21:14:41.070Z,2.70
2019-05-25T21:17:10.256Z,3.03
2019-05-25T21:19:39.484Z,2.47
2019-05-25T21:22:08.681Z,2.40
2019-05-25T21:24:37.898Z,2.30
2019-05-25T21:27:07.111Z,1.93
2019-05-25T21:29:36.323Z,2.77
2019-05-25T21:32:05.741Z,2.10
2019-05-25T21:34:34.963Z,2.03
2019-05-25T21:37:04.160Z,2.40
2019-05-25T21:39:33.395Z,2.00
2019-05-25T21:42:02.625Z,2.30
2019-05-25T21:44:31.844Z,2.70
2019-05-25T21:47:01.048Z,2.90
2019-05-25T21:49:30.257Z,2.80
2019-05-25T21:51:59.487Z,2.83
2019-05-25T21:54:28.701Z,2.60
2019-05-25T21:56:57.908Z,2.50
2019-05-25T21:59:27.121Z,2.53
2019-05-25T22:01:56.307Z,2.50
2019-05-25T22:04:25.553Z,2.87
2019-05-25T22:06:54.728Z,2.70
2019-05-25T22:09:23.979Z,2.63
2019-05-25T22:11:53.151Z,3.07
2019-05-25T22:14:22.416Z,3.27
2019-05-25T22:16:51.607Z,2.60
2019-05-25T22:19:20.849Z,2.33
2019-05-25T22:21:50.036Z,2.77
2019-05-25T22:24:19.248Z,3.00
2019-05-25T22:26:48.444Z,2.80
2019-05-25T22:29:17.638Z,2.60
2019-05-25T22:31:46.861Z,2.50
2019-05-25T22:34:16.073Z,2.40
2019-05-25T22:36:45.297Z,2.60
2019-05-25T22:39:14.502Z,2.70
2019-05-25T22:41:43.861Z,2.80
2019-05-25T22:44:13.051Z,2.90
2019-05-25T22:46:42.292Z,2.43
2019-05-25T22:49:11.704Z,2.90
2019-05-25T22:51:41.026Z,2.77
2019-05-25T22:54:10.297Z,3.40
2019-05-25T22:56:39.573Z,2.87
2019-05-25T22:59:08.861Z,3.17
2019-05-25T23:01:38.192Z,3.40
2019-05-25T23:04:07.472Z,3.00
2019-05-25T23:06:36.661Z,3.27
2019-05-25T23:09:07.061Z,3.37
2019-05-25T23:11:36.312Z,3.43
2019-05-25T23:14:05.616Z,3.47
2019-05-25T23:16:34.868Z,3.33
2019-05-25T23:19:04.148Z,3.50
2019-05-25T23:21:33.365Z,3.23
2019-05-25T23:24:02.560Z,3.47
2019-05-25T23:26:31.844Z,3.00
2019-05-25T23:29:01.049Z,3.50
2019-05-25T23:31:30.225Z,3.47
2019-05-25T23:33:59.465Z,3.43
2019-05-25T23:36:28.744Z,3.13
2019-05-25T23:38:57.962Z,3.47
2019-05-25T23:41:27.178Z,3.47
2019-05-25T23:43:59.667Z,3.93
2019-05-25T23:46:27.255Z,4.43
2019-05-25T23:48:56.588Z,4.37
2019-05-25T23:51:25.783Z,4.37
2019-05-25T23:53:54.993Z,4.47
2019-05-25T23:56:24.221Z,4.30
2019-05-25T23:58:53.426Z,4.83
